createdAt,value
2023-03-05T00:01:36.773Z,4.15
2023-03-05T00:04:05.020Z,4.25
2023-03-05T00:06:32.391Z,4.32
2023-03-05T00:08:59.729Z,4.26
2023-03-05T00:11:27.336Z,4.27
2023-03-05T00:13:54.753Z,4.18
2023-03-05T00:16:22.319Z,4.19
2023-03-05T00:18:51.138Z,4.32
2023-03-05T00:21:20.129Z,4.49
2023-03-05T00:23:47.464Z,4.33
2023-03-05T00:26:14.644Z,4.39
2023-03-05T00:28:41.992Z,4.68
2023-03-05T00:31:09.378Z,4.77
2023-03-05T00:33:36.727Z,4.50
2023-03-05T00:36:09.783Z,4.38
2023-03-05T00:38:37.007Z,4.46
2023-03-05T00:41:04.573Z,4.32
2023-03-05T00:43:31.852Z,4.43
2023-03-05T00:45:59.137Z,4.39
2023-03-05T00:48:26.373Z,4.89
2023-03-05T00:50:53.672Z,5.00
2023-03-05T00:53:22.417Z,4.59
2023-03-05T00:55:49.678Z,4.57
2023-03-05T00:58:16.896Z,4.33
2023-03-05T01:00:44.197Z,4.34
2023-03-05T01:03:11.457Z,4.37
2023-03-05T01:05:38.836Z,4.64
2023-03-05T01:08:06.189Z,4.13
2023-03-05T01:10:34.805Z,4.06
2023-03-05T01:13:02.050Z,4.00
2023-03-05T01:15:29.465Z,4.04
2023-03-05T01:17:56.661Z,3.94
2023-03-05T01:20:24.083Z,4.20
2023-03-05T01:22:51.250Z,3.82
2023-03-05T01:25:18.495Z,4.17
2023-03-05T01:27:47.119Z,3.67
2023-03-05T01:30:14.794Z,3.58
2023-03-05T01:32:42.061Z,3.77
2023-03-05T01:35:10.852Z,3.74
2023-03-05T01:37:38.145Z,3.82
2023-03-05T01:40:06.503Z,3.56
2023-03-05T01:42:34.266Z,3.28
2023-03-05T01:45:05.335Z,3.21
2023-03-05T01:47:32.559Z,3.22
2023-03-05T01:49:59.770Z,3.09
2023-03-05T01:52:27.169Z,3.10
2023-03-05T01:54:56.031Z,3.01
2023-03-05T01:57:24.437Z,3.19
2023-03-05T01:59:54.155Z,3.06
2023-03-05T02:02:22.755Z,3.10
2023-03-05T02:04:51.208Z,3.15
2023-03-05T02:07:18.542Z,3.03
2023-03-05T02:09:45.790Z,3.02
2023-03-05T02:12:13.063Z,3.15
2023-03-05T02:14:40.774Z,3.13
2023-03-05T02:17:08.083Z,3.29
2023-03-05T02:19:49.013Z,3.79
2023-03-05T02:22:17.829Z,3.33
2023-03-05T02:24:45.132Z,3.44
2023-03-05T02:27:12.642Z,3.27
2023-03-05T02:29:41.064Z,3.59
2023-03-05T02:32:08.377Z,3.29
2023-03-05T02:34:35.776Z,3.17
2023-03-05T02:37:03.137Z,2.86
2023-03-05T02:39:31.981Z,2.69
2023-03-05T02:41:59.293Z,2.80
2023-03-05T02:44:26.574Z,2.63
2023-03-05T02:46:53.827Z,2.54
2023-03-05T02:49:21.121Z,2.53
2023-03-05T02:51:48.451Z,2.48
2023-03-05T02:54:15.661Z,2.38
2023-03-05T02:56:44.388Z,2.50
2023-03-05T02:59:11.624Z,2.51
2023-03-05T03:01:38.837Z,2.42
2023-03-05T03:04:06.147Z,2.37
2023-03-05T03:06:33.394Z,2.39
2023-03-05T03:09:00.654Z,2.45
2023-03-05T03:11:27.887Z,2.35
2023-03-05T03:13:56.620Z,2.39
2023-03-05T03:16:23.892Z,2.32
2023-03-05T03:18:51.151Z,2.24
2023-03-05T03:21:19.881Z,2.32
2023-03-05T03:23:47.172Z,2.23
2023-03-05T03:26:14.413Z,2.18
2023-03-05T03:28:41.678Z,2.19
2023-03-05T03:31:10.347Z,2.20
2023-03-05T03:33:37.641Z,2.43
2023-03-05T03:36:05.559Z,2.42
2023-03-05T03:38:32.819Z,2.13
2023-03-05T03:41:00.061Z,1.99
2023-03-05T03:43:27.421Z,2.25
2023-03-05T03:45:54.749Z,2.04
2023-03-05T03:48:23.459Z,2.10
2023-03-05T03:50:50.611Z,2.03
2023-03-05T03:53:17.841Z,1.99
2023-03-05T03:55:45.068Z,2.05
2023-03-05T03:58:12.400Z,1.88
2023-03-05T04:00:39.801Z,1.68
2023-03-05T04:03:07.016Z,1.82
2023-03-05T04:05:35.668Z,1.78
2023-03-05T04:08:02.983Z,1.75
2023-03-05T04:10:30.236Z,1.65
2023-03-05T04:12:57.508Z,1.67
2023-03-05T04:15:24.738Z,1.62
2023-03-05T04:17:52.008Z,1.51
2023-03-05T04:20:19.376Z,1.48
2023-03-05T04:22:48.001Z,1.38
2023-03-05T04:25:15.314Z,1.45
2023-03-05T04:27:42.596Z,1.41
2023-03-05T04:30:11.781Z,1.38
2023-03-05T04:32:39.156Z,1.38
2023-03-05T04:35:06.691Z,1.40
2023-03-05T04:37:33.908Z,1.34
2023-03-05T04:40:02.515Z,1.43
2023-03-05T04:42:29.795Z,1.42
2023-03-05T04:44:56.983Z,1.36
2023-03-05T04:47:24.263Z,1.38
2023-03-05T04:49:51.683Z,1.40
2023-03-05T04:52:18.992Z,1.35
2023-03-05T04:54:46.269Z,1.28
2023-03-05T04:57:15.043Z,1.47
2023-03-05T04:59:42.224Z,1.29
2023-03-05T05:02:09.455Z,1.38
2023-03-05T05:04:36.725Z,1.18
2023-03-05T05:07:04.053Z,1.19
2023-03-05T05:09:31.349Z,1.17
2023-03-05T05:11:58.656Z,1.14
2023-03-05T05:14:27.348Z,1.07
2023-03-05T05:16:54.635Z,1.06
2023-03-05T05:19:21.929Z,1.02
2023-03-05T05:21:49.216Z,1.24
2023-03-05T05:24:16.475Z,1.19
2023-03-05T05:26:43.751Z,1.18
2023-03-05T05:29:10.919Z,1.13
2023-03-05T05:31:39.637Z,1.13
2023-03-05T05:34:06.939Z,1.12
2023-03-05T05:36:34.197Z,1.23
2023-03-05T05:39:01.477Z,1.11
2023-03-05T05:41:28.858Z,1.04
2023-03-05T05:43:56.127Z,0.94
2023-03-05T05:46:23.554Z,0.81
2023-03-05T05:48:52.389Z,0.82
2023-03-05T05:51:21.732Z,0.75
2023-03-05T05:53:49.042Z,0.65
2023-03-05T05:56:16.364Z,0.70
2023-03-05T05:58:44.091Z,0.65
2023-03-05T06:01:15.463Z,0.63
2023-03-05T06:03:42.677Z,0.57
2023-03-05T06:06:12.334Z,0.66
2023-03-05T06:08:39.633Z,0.61
2023-03-05T06:11:07.067Z,0.70
2023-03-05T06:13:34.349Z,0.73
2023-03-05T06:16:03.411Z,0.75
2023-03-05T06:18:30.691Z,0.79
2023-03-05T06:20:58.271Z,0.80
2023-03-05T06:23:26.988Z,0.85
2023-03-05T06:25:54.292Z,0.97
2023-03-05T06:28:21.650Z,0.98
2023-03-05T06:30:49.039Z,0.93
2023-03-05T06:33:16.276Z,0.95
2023-03-05T06:35:43.622Z,1.02
2023-03-05T06:38:10.863Z,0.85
2023-03-05T06:40:40.537Z,0.79
2023-03-05T06:43:07.894Z,0.93
2023-03-05T06:45:35.189Z,1.01
2023-03-05T06:48:02.395Z,0.81
2023-03-05T06:50:29.572Z,0.82
2023-03-05T06:52:56.778Z,0.88
2023-03-05T06:55:24.110Z,0.91
2023-03-05T06:57:52.756Z,0.92
2023-03-05T07:00:21.021Z,0.92
2023-03-05T07:02:48.367Z,0.90
2023-03-05T07:05:15.560Z,1.07
2023-03-05T07:07:42.763Z,1.08
2023-03-05T07:10:11.134Z,1.14
2023-03-05T07:12:38.362Z,1.05
2023-03-05T07:15:10.268Z,1.23
2023-03-05T07:17:37.480Z,1.16
2023-03-05T07:20:05.735Z,1.52
2023-03-05T07:22:32.932Z,1.28
2023-03-05T07:25:00.112Z,1.39
2023-03-05T07:27:27.260Z,1.28
2023-03-05T07:29:54.584Z,1.38
2023-03-05T07:32:23.419Z,1.48
2023-03-05T07:34:50.701Z,1.45
2023-03-05T07:37:17.911Z,1.63
2023-03-05T07:39:47.116Z,1.94
2023-03-05T07:42:14.641Z,1.85
2023-03-05T07:44:45.442Z,1.71
2023-03-05T07:47:12.815Z,1.80
2023-03-05T07:49:59.906Z,2.06
2023-03-05T07:52:27.194Z,2.36
2023-03-05T07:54:54.442Z,2.66
2023-03-05T07:57:21.751Z,2.27
2023-03-05T07:59:48.999Z,2.81
2023-03-05T08:02:16.304Z,3.22
2023-03-05T08:04:43.539Z,2.81
2023-03-05T08:07:14.682Z,2.33
2023-03-05T08:09:41.877Z,2.45
2023-03-05T08:12:09.970Z,2.90
2023-03-05T08:14:37.219Z,2.92
2023-03-05T08:17:04.657Z,2.65
2023-03-05T08:19:32.129Z,2.87
2023-03-05T08:21:59.500Z,3.43
2023-03-05T08:24:28.240Z,3.11
2023-03-05T08:26:55.416Z,3.38
2023-03-05T08:29:25.805Z,3.67
2023-03-05T08:31:52.979Z,3.34
2023-03-05T08:34:20.418Z,3.34
2023-03-05T08:36:47.774Z,3.82
2023-03-05T08:39:14.986Z,3.77
2023-03-05T08:41:43.663Z,3.13
2023-03-05T08:44:10.910Z,3.12
2023-03-05T08:46:39.298Z,2.72
2023-03-05T08:49:06.592Z,3.45
2023-03-05T08:51:34.000Z,2.90
2023-03-05T08:54:01.264Z,2.81
2023-03-05T08:56:28.612Z,3.48
2023-03-05T08:58:57.420Z,3.23
2023-03-05T09:01:24.788Z,3.19
2023-03-05T09:03:52.117Z,3.13
2023-03-05T09:06:22.447Z,3.22
2023-03-05T09:08:49.653Z,3.27
2023-03-05T09:11:16.818Z,3.13
2023-03-05T09:13:44.107Z,3.22
2023-03-05T09:16:14.224Z,3.35
2023-03-05T09:18:41.622Z,3.31
2023-03-05T09:21:09.682Z,3.66
2023-03-05T09:23:36.978Z,3.62
2023-03-05T09:26:05.443Z,4.06
2023-03-05T09:28:32.679Z,4.28
2023-03-05T09:31:02.564Z,4.14
2023-03-05T09:33:31.348Z,3.97
2023-03-05T09:35:58.943Z,4.24
2023-03-05T09:38:26.281Z,4.75
2023-03-05T09:40:57.454Z,4.19
2023-03-05T09:43:30.075Z,4.88
2023-03-05T09:46:02.619Z,4.39
2023-03-05T09:48:39.086Z,3.88
2023-03-05T09:51:07.901Z,4.15
2023-03-05T09:53:37.265Z,5.01
2023-03-05T09:56:05.161Z,5.53
2023-03-05T09:58:35.323Z,5.60
2023-03-05T10:01:03.582Z,4.63
2023-03-05T10:03:34.636Z,5.47
2023-03-05T10:06:06.837Z,5.52
2023-03-05T10:08:44.580Z,5.42
2023-03-05T10:11:19.068Z,4.67
2023-03-05T10:13:46.399Z,4.42
2023-03-05T10:16:30.066Z,4.43
2023-03-05T10:19:00.477Z,4.77
2023-03-05T10:21:28.766Z,5.14
2023-03-05T10:24:01.171Z,5.67
2023-03-05T10:26:36.041Z,6.39
2023-03-05T10:29:10.729Z,6.46
2023-03-05T10:31:51.682Z,5.90
2023-03-05T10:35:02.829Z,6.85
2023-03-05T10:37:48.950Z,7.19
2023-03-05T10:40:19.143Z,6.59
2023-03-05T10:42:49.668Z,6.72
2023-03-05T10:45:18.063Z,6.92
2023-03-05T10:47:47.851Z,6.61
2023-03-05T10:50:18.053Z,7.07
2023-03-05T10:52:45.212Z,6.90
2023-03-05T10:55:16.260Z,7.22
2023-03-05T10:57:43.522Z,7.33
2023-03-05T11:00:18.976Z,7.55
2023-03-05T11:02:57.593Z,7.45
2023-03-05T11:05:40.880Z,7.93
2023-03-05T11:08:28.025Z,7.77
2023-03-05T11:11:06.594Z,6.44
2023-03-05T11:13:33.941Z,7.67
2023-03-05T11:16:01.397Z,7.80
2023-03-05T11:18:28.804Z,8.00
2023-03-05T11:21:06.999Z,7.66
2023-03-05T11:23:34.147Z,7.18
2023-03-05T11:26:05.236Z,6.21
2023-03-05T11:28:34.565Z,7.08
2023-03-05T11:31:05.093Z,7.89
2023-03-05T11:33:32.632Z,8.07
2023-03-05T11:36:28.190Z,7.94
2023-03-05T11:38:57.411Z,8.54
2023-03-05T11:41:31.498Z,8.71
2023-03-05T11:43:59.180Z,8.78
2023-03-05T11:46:26.401Z,8.54
2023-03-05T11:48:53.857Z,8.51
2023-03-05T11:51:22.682Z,8.50
2023-03-05T11:53:54.117Z,8.78
2023-03-05T11:56:21.978Z,8.77
2023-03-05T11:58:51.530Z,9.31
2023-03-05T12:01:19.551Z,9.03
2023-03-05T12:03:47.086Z,9.14
2023-03-05T12:06:16.153Z,9.14
2023-03-05T12:08:45.889Z,8.76
2023-03-05T12:11:16.282Z,9.48
2023-03-05T12:13:44.283Z,9.29
2023-03-05T12:16:18.497Z,9.44
2023-03-05T12:18:51.133Z,9.15
2023-03-05T12:21:25.074Z,9.18
2023-03-05T12:23:55.253Z,9.17
2023-03-05T12:27:05.564Z,9.57
2023-03-05T12:29:39.099Z,9.29
2023-03-05T12:32:09.619Z,9.58
2023-03-05T12:34:57.872Z,9.72
2023-03-05T12:38:04.444Z,9.85
2023-03-05T12:40:37.954Z,10.03
2023-03-05T12:43:06.680Z,10.13
2023-03-05T12:45:38.279Z,10.43
2023-03-05T12:48:42.663Z,10.30
2023-03-05T12:51:29.589Z,10.77
2023-03-05T12:53:57.148Z,10.68
2023-03-05T12:56:26.972Z,11.05
2023-03-05T12:58:55.858Z,11.12
2023-03-05T13:01:39.400Z,10.95
2023-03-05T13:04:07.769Z,11.64
2023-03-05T13:06:35.481Z,11.61
2023-03-05T13:09:04.050Z,11.85
2023-03-05T13:11:31.930Z,12.18
2023-03-05T13:14:00.990Z,12.02
2023-03-05T13:16:28.811Z,12.25
2023-03-05T13:18:57.757Z,12.62
2023-03-05T13:21:25.660Z,13.01
2023-03-05T13:23:54.052Z,12.85
2023-03-05T13:26:21.345Z,12.80
2023-03-05T13:31:45.842Z,14.24
2023-03-05T13:34:16.269Z,13.99
2023-03-05T13:36:46.794Z,14.40
2023-03-05T13:39:19.166Z,14.66
2023-03-05T13:42:02.274Z,14.79
2023-03-05T13:44:29.754Z,14.70
2023-03-05T13:47:09.046Z,14.58
2023-03-05T13:49:36.420Z,15.08
2023-03-05T13:52:04.177Z,15.71
2023-03-05T13:54:31.511Z,16.28
2023-03-05T13:56:59.461Z,16.12
2023-03-05T13:59:27.409Z,15.69
2023-03-05T14:01:54.738Z,15.66
2023-03-05T14:04:24.642Z,15.95
2023-03-05T14:06:54.298Z,15.69
2023-03-05T14:09:22.717Z,15.91
2023-03-05T14:11:58.116Z,16.10
2023-03-05T14:14:25.469Z,16.89
2023-03-05T14:16:52.904Z,16.84
2023-03-05T14:19:35.415Z,16.88
2023-03-05T14:22:02.540Z,17.16
2023-03-05T14:24:29.761Z,16.49
2023-03-05T14:26:57.663Z,17.53
2023-03-05T14:29:25.114Z,17.79
2023-03-05T14:31:53.483Z,17.90
2023-03-05T14:34:22.911Z,18.47
2023-03-05T14:36:54.897Z,19.12
2023-03-05T14:39:39.167Z,18.07
2023-03-05T14:42:31.248Z,18.45
2023-03-05T14:44:59.673Z,18.02
2023-03-05T14:47:27.124Z,15.87
2023-03-05T14:49:54.448Z,17.53
2023-03-05T14:52:23.933Z,18.07
2023-03-05T14:54:51.223Z,19.76
2023-03-05T14:57:19.301Z,22.42
2023-03-05T14:59:46.771Z,25.56
2023-03-05T15:02:21.165Z,26.40
2023-03-05T15:04:49.316Z,28.25
2023-03-05T15:07:18.074Z,29.26
2023-03-05T15:09:46.679Z,26.55
2023-03-05T15:12:14.813Z,23.69
2023-03-05T15:14:42.132Z,23.43
2023-03-05T15:17:15.060Z,25.51
2023-03-05T15:19:42.375Z,24.67
2023-03-05T15:22:10.416Z,21.34
2023-03-05T15:24:37.592Z,19.42
2023-03-05T15:27:06.252Z,21.37
2023-03-05T15:29:33.568Z,23.84
2023-03-05T15:32:00.737Z,24.82
2023-03-05T15:34:28.169Z,24.91
2023-03-05T15:36:55.403Z,24.97
2023-03-05T15:39:22.522Z,24.32
2023-03-05T15:41:49.686Z,23.90
2023-03-05T15:44:18.226Z,22.49
2023-03-05T15:46:45.595Z,19.92
2023-03-05T15:49:12.956Z,17.21
2023-03-05T15:51:40.167Z,16.73
2023-03-05T15:54:07.246Z,16.51
2023-03-05T15:56:34.518Z,15.93
2023-03-05T15:59:01.716Z,15.91
2023-03-05T16:01:30.561Z,16.16
2023-03-05T16:03:57.876Z,15.77
2023-03-05T16:06:25.174Z,14.97
2023-03-05T16:08:54.609Z,14.05
2023-03-05T16:11:21.827Z,13.24
2023-03-05T16:13:49.064Z,13.92
2023-03-05T16:16:16.339Z,14.85
2023-03-05T16:18:45.107Z,13.32
2023-03-05T16:21:12.532Z,14.06
2023-03-05T16:23:39.721Z,14.15
2023-03-05T16:26:08.443Z,13.83
2023-03-05T16:28:35.693Z,13.23
2023-03-05T16:31:03.070Z,12.95
2023-03-05T16:33:30.383Z,13.44
2023-03-05T16:36:29.816Z,13.01
2023-03-05T16:38:57.714Z,13.14
2023-03-05T16:41:25.111Z,12.69
2023-03-05T16:43:52.686Z,12.48
2023-03-05T16:46:20.077Z,12.35
2023-03-05T16:48:47.379Z,12.50
2023-03-05T16:51:16.012Z,11.97
2023-03-05T16:53:43.247Z,12.03
2023-03-05T16:56:10.593Z,11.49
2023-03-05T16:58:38.487Z,11.52
2023-03-05T17:01:09.095Z,11.35
2023-03-05T17:03:36.456Z,10.27
2023-03-05T17:06:10.848Z,10.15
2023-03-05T17:08:39.473Z,9.92
2023-03-05T17:11:08.583Z,9.13
2023-03-05T17:13:35.876Z,8.99
2023-03-05T17:16:03.237Z,8.50
2023-03-05T17:18:30.405Z,8.36
2023-03-05T17:20:57.607Z,8.12
2023-03-05T17:23:24.902Z,7.89
2023-03-05T17:25:53.691Z,7.99
2023-03-05T17:28:20.988Z,7.79
2023-03-05T17:30:48.339Z,7.87
2023-03-05T17:33:15.642Z,7.67
2023-03-05T17:35:43.656Z,7.60
2023-03-05T17:38:10.936Z,7.55
2023-03-05T17:40:38.113Z,7.41
2023-03-05T17:43:06.737Z,7.46
2023-03-05T17:45:34.126Z,7.32
2023-03-05T17:48:01.454Z,7.23
2023-03-05T17:50:28.672Z,7.47
2023-03-05T17:52:55.926Z,7.31
2023-03-05T17:55:23.175Z,7.38
2023-03-05T17:57:50.457Z,7.74
2023-03-05T18:00:20.951Z,7.49
2023-03-05T18:02:48.262Z,7.21
2023-03-05T18:05:15.798Z,7.07
2023-03-05T18:07:45.824Z,6.97
2023-03-05T18:10:13.214Z,7.12
2023-03-05T18:12:40.674Z,6.76
2023-03-05T18:15:09.990Z,6.88
2023-03-05T18:17:38.612Z,6.42
2023-03-05T18:20:07.006Z,6.43
2023-03-05T18:22:34.331Z,6.27
2023-03-05T18:25:01.595Z,6.16
2023-03-05T18:27:28.872Z,5.93
2023-03-05T18:29:56.236Z,6.12
2023-03-05T18:32:23.519Z,5.79
2023-03-05T18:34:52.314Z,5.71
2023-03-05T18:37:20.633Z,5.64
2023-03-05T18:39:47.935Z,5.61
2023-03-05T18:42:15.100Z,5.64
2023-03-05T18:44:42.416Z,5.95
2023-03-05T18:47:09.499Z,5.60
2023-03-05T18:49:36.745Z,5.56
2023-03-05T18:52:05.713Z,5.54
2023-03-05T18:54:32.962Z,5.35
2023-03-05T18:57:00.233Z,5.27
2023-03-05T18:59:27.535Z,5.34
2023-03-05T19:01:54.696Z,5.26
2023-03-05T19:04:21.938Z,5.26
2023-03-05T19:06:49.129Z,5.40
2023-03-05T19:09:17.931Z,5.21
2023-03-05T19:11:45.231Z,5.27
2023-03-05T19:14:12.703Z,5.69
2023-03-05T19:16:40.133Z,5.47
2023-03-05T19:19:07.413Z,5.07
2023-03-05T19:21:34.693Z,5.23
2023-03-05T19:24:01.891Z,5.14
2023-03-05T19:26:30.551Z,5.31
2023-03-05T19:28:57.792Z,5.08
2023-03-05T19:31:25.199Z,5.06
2023-03-05T19:33:52.484Z,4.97
2023-03-05T19:36:19.730Z,5.05
2023-03-05T19:38:48.604Z,4.97
2023-03-05T19:41:16.667Z,4.96
2023-03-05T19:43:45.319Z,5.09
2023-03-05T19:46:12.543Z,5.16
2023-03-05T19:48:39.877Z,5.10
2023-03-05T19:51:09.147Z,5.10
2023-03-05T19:53:36.217Z,5.27
2023-03-05T19:56:03.520Z,5.32
2023-03-05T19:58:30.760Z,5.39
2023-03-05T20:01:07.760Z,5.38
2023-03-05T20:03:35.144Z,5.17
2023-03-05T20:06:02.426Z,5.63
2023-03-05T20:08:29.634Z,4.98
2023-03-05T20:10:56.960Z,5.58
2023-03-05T20:13:24.757Z,5.33
